Weather History for Uvalde, TX

Change the Weather History Date:

Sunday, March 3, 2013

  Actual Average (KHDO) Record (KHDO)
Temperature  
Mean Temperature 58 °F -  
Max Temperature 78 °F 67 °F 81 °F (2011)
Min Temperature 37 °F 44 °F 21 °F (2002)
Degree Days  
Heating Degree Days 8    
Growing Degree Days 8 (Base 50)    
Moisture  
Dew Point 24 °F    
Average Humidity 30    
Maximum Humidity 57    
Minimum Humidity 12    
Precipitation  
Precipitation 0.00 in - - ()
Sea Level Pressure  
Sea Level Pressure 30.11 in    
Wind  
Wind Speed 7 mph (SE)    
Max Wind Speed 20 mph    
Max Gust Speed 24 mph    
Visibility 10 miles    
Events      
Averages and records for this station are not official NWS values.
T = Trace of Precipitation, MM = Missing Value Source: NWS Daily Summary

Daily Weather History Graph

Daily Weather History Graph

Search for Another Location

Airport:

Trip Planner

Search our weather history database for the weather conditions in past years. The results will help you decide how hot, cold, wet, or windy it might be!

Date:

Astronomy

Mar. 03, 2013 Rise Set
Actual Time 7:01 AM CST 6:40 PM CST
Civil Twilight 6:38 AM CST 7:03 PM CST
Nautical Twilight 6:10 AM CST 7:31 PM CST
Astronomical Twilight 5:43 AM CST 7:58 PM CST
Moon No Moon Rise 10:49 AM CST (3/3)
Length of Visible Light 12h 25m
Length of Day
11h 38m
Waning Gibbous, 63% of the Moon is Illuminated
Mar 3
Waning Gibbous
Mar 4
Last Quarter
Mar 11
New
Mar 19
First Quarter
Mar 27
Full

Hourly Weather History & Observations

Time (CST) Temp. Windchill Dew Point Humidity Pressure Visibility Wind Dir Wind Speed Gust Speed Precip Events Conditions
12:15 AM 47.7 °F - 23.0 °F 38% 30.27 in 10.0 mi East 8.1 mph - N/A   Clear
12:35 AM 50.2 °F - 24.6 °F 37% 30.27 in 10.0 mi East 4.6 mph - N/A   Clear
12:55 AM 49.5 °F - 24.4 °F 38% 30.27 in 10.0 mi ESE 3.5 mph - N/A   Clear
1:35 AM 47.7 °F - 24.8 °F 41% 30.27 in 10.0 mi Calm Calm - N/A   Clear
1:55 AM 47.7 °F - 24.3 °F 40% 30.27 in 10.0 mi ENE 3.5 mph - N/A   Clear
2:15 AM 44.8 °F 43.3 °F 23.9 °F 44% 30.27 in 10.0 mi East 3.5 mph - N/A   Clear
2:35 AM 42.4 °F 40.7 °F 22.8 °F 46% 30.26 in 10.0 mi ENE 3.5 mph - N/A   Clear
2:55 AM 43.9 °F 42.3 °F 24.4 °F 46% 30.25 in 10.0 mi East 3.5 mph - N/A   Clear
3:15 AM 41.9 °F 38.2 °F 22.1 °F 45% 30.25 in 10.0 mi East 5.8 mph - N/A   Clear
3:35 AM 40.1 °F 36.1 °F 21.7 °F 48% 30.24 in 10.0 mi ENE 5.8 mph - N/A   Clear
3:55 AM 40.8 °F 36.9 °F 22.6 °F 48% 30.24 in 10.0 mi NE 5.8 mph - N/A   Clear
4:15 AM 41.0 °F 38.0 °F 22.6 °F 48% 30.23 in 10.0 mi NE 4.6 mph - N/A   Clear
4:35 AM 40.1 °F 36.9 °F 22.5 °F 49% 30.23 in 10.0 mi NE 4.6 mph - N/A   Clear
4:55 AM 40.1 °F 36.1 °F 22.8 °F 50% 30.23 in 10.0 mi NE 5.8 mph - N/A   Clear
5:15 AM 39.2 °F 35.9 °F 22.1 °F 50% 30.23 in 10.0 mi NE 4.6 mph - N/A   Clear
5:55 AM 38.8 °F 34.6 °F 22.1 °F 51% 30.23 in 10.0 mi NE 5.8 mph - N/A   Clear
6:15 AM 37.6 °F 33.1 °F 22.1 °F 54% 30.23 in 10.0 mi NE 5.8 mph - N/A   Clear
6:55 AM 37.4 °F 32.8 °F 23.4 °F 57% 30.23 in 10.0 mi NE 5.8 mph - N/A   Clear
7:15 AM 37.6 °F 33.1 °F 23.4 °F 57% 30.23 in 10.0 mi NE 5.8 mph - N/A   Clear
7:35 AM 38.3 °F 33.9 °F 23.2 °F 55% 30.23 in 10.0 mi ENE 5.8 mph - N/A   Clear
7:55 AM 42.1 °F 38.4 °F 23.5 °F 48% 30.24 in 10.0 mi ENE 5.8 mph - N/A   Clear
8:15 AM 47.7 °F - 25.5 °F 42% 30.24 in 10.0 mi ENE 4.6 mph - N/A   Clear
8:35 AM 49.1 °F - 25.3 °F 40% 30.24 in 10.0 mi ENE 4.6 mph - N/A   Clear
8:55 AM 52.7 °F - 28.6 °F 40% 30.24 in 10.0 mi SE 5.8 mph - N/A   Clear
9:15 AM 52.9 °F - 28.9 °F 40% 30.24 in 10.0 mi SSE 8.1 mph - N/A   Clear
9:35 AM 55.0 °F - 30.7 °F 40% 30.24 in 10.0 mi SSW 3.5 mph - N/A   Clear
9:55 AM 55.4 °F - 30.7 °F 39% 30.23 in 10.0 mi SSE 5.8 mph - N/A   Clear
10:15 AM 57.9 °F - 31.5 °F 37% 30.22 in 10.0 mi SSW 6.9 mph - N/A   Clear
10:35 AM 60.3 °F - 30.0 °F 32% 30.22 in 10.0 mi South 9.2 mph - N/A   Clear
10:55 AM 64.0 °F - 29.7 °F 27% 30.20 in 10.0 mi SSW 10.4 mph - N/A   Clear
11:15 AM 68.0 °F - 29.7 °F 24% 30.19 in 10.0 mi SSW 10.4 mph - N/A   Clear
11:35 AM 68.0 °F - 28.4 °F 23% 30.18 in 10.0 mi South 12.7 mph - N/A   Clear
11:55 AM 68.4 °F - 27.3 °F 22% 30.16 in 10.0 mi South 13.8 mph 17.3 mph N/A   Clear
12:15 PM 72.1 °F - 28.6 °F 20% 30.15 in 10.0 mi SSW 13.8 mph - N/A   Clear
12:35 PM 73.4 °F - 26.8 °F 18% 30.13 in 10.0 mi South 18.4 mph 24.2 mph N/A   Clear
12:55 PM 73.2 °F - 25.5 °F 17% 30.12 in 10.0 mi South 16.1 mph 20.7 mph N/A   Clear
1:15 PM 75.4 °F - 25.2 °F 15% 30.10 in 10.0 mi South 12.7 mph 19.6 mph N/A   Clear
1:35 PM 75.7 °F - 23.4 °F 14% 30.08 in 10.0 mi SSW 12.7 mph 24.2 mph N/A   Clear
1:55 PM 77.2 °F - 23.5 °F 14% 30.07 in 10.0 mi SSW 13.8 mph 18.4 mph N/A   Clear
2:35 PM 75.4 °F - 21.9 °F 14% 30.04 in 10.0 mi South 12.7 mph 21.9 mph N/A   Clear
2:55 PM 77.9 °F - 23.0 °F 13% 30.03 in 10.0 mi South 16.1 mph - N/A   Clear
3:35 PM 77.9 °F - 21.6 °F 12% 30.01 in 10.0 mi South 16.1 mph 23.0 mph N/A   Clear
3:55 PM 77.9 °F - 22.1 °F 13% 30.00 in 10.0 mi South 16.1 mph 24.2 mph N/A   Clear
4:15 PM 77.9 °F - 21.9 °F 12% 29.98 in 10.0 mi South 19.6 mph 24.2 mph N/A   Clear
4:35 PM 78.4 °F - 21.0 °F 12% 29.97 in 10.0 mi South 17.3 mph 23.0 mph N/A   Clear
4:55 PM 77.9 °F - 21.0 °F 12% 29.96 in 10.0 mi South 15.0 mph - N/A   Clear
5:15 PM 77.9 °F - 20.5 °F 12% 29.96 in 10.0 mi South 15.0 mph 19.6 mph N/A   Clear
5:35 PM 77.9 °F - 21.6 °F 12% 29.96 in 10.0 mi South 15.0 mph 21.9 mph N/A   Clear
5:55 PM 77.9 °F - 21.9 °F 12% 29.96 in 10.0 mi SSE 13.8 mph - N/A   Clear
6:15 PM 75.7 °F - 21.0 °F 13% 29.96 in 10.0 mi SSE 11.5 mph - N/A   Clear
6:35 PM 74.3 °F - 21.7 °F 14% 29.96 in 10.0 mi SSE 10.4 mph - N/A   Clear
6:55 PM 72.9 °F - 23.5 °F 16% 29.95 in 10.0 mi SSE 9.2 mph - N/A   Clear
7:15 PM 70.3 °F - 22.3 °F 16% 29.95 in 10.0 mi SSE 9.2 mph - N/A   Clear
7:35 PM 68.0 °F - 21.7 °F 17% 29.95 in 10.0 mi SSE 8.1 mph - N/A   Clear
7:55 PM 68.0 °F - 21.9 °F 17% 29.95 in 10.0 mi SE 6.9 mph - N/A   Clear
8:15 PM 65.8 °F - 22.3 °F 19% 29.96 in 10.0 mi SE 4.6 mph - N/A   Clear
8:35 PM 62.8 °F - 21.2 °F 20% 29.96 in 10.0 mi SE 5.8 mph - N/A   Clear
8:55 PM 62.2 °F - 21.7 °F 21% 29.96 in 10.0 mi SE 5.8 mph - N/A   Clear
9:15 PM 61.0 °F - 21.6 °F 22% 29.95 in 10.0 mi SSE 6.9 mph - N/A   Clear
9:35 PM 60.3 °F - 22.3 °F 23% 29.95 in 10.0 mi SE 5.8 mph - N/A   Clear
9:55 PM 60.3 °F - 23.2 °F 24% 29.95 in 10.0 mi SE 5.8 mph - N/A   Clear
10:15 PM 59.0 °F - 23.2 °F 25% 29.95 in 10.0 mi SE 4.6 mph - N/A   Clear
10:35 PM 58.8 °F - 23.9 °F 26% 29.95 in 10.0 mi SE 6.9 mph - N/A   Clear
10:55 PM 59.0 °F - 24.8 °F 27% 29.95 in 10.0 mi East 4.6 mph - N/A   Clear
11:15 PM 60.3 °F - 27.7 °F 29% 29.95 in 10.0 mi SE 8.1 mph - N/A   Clear
11:35 PM 59.0 °F - 28.2 °F 31% 29.94 in 10.0 mi ESE 5.8 mph - N/A   Clear
11:55 PM 57.7 °F - 29.1 °F 34% 29.94 in 10.0 mi ESE 4.6 mph - N/A   Clear